Weather at Kjeller Airport

Public forecast

Using degrees Celsius for public forecast. Weather courtesy of forecast.io.

Closest aviation weather report (METAR) to Kjeller Airport

Closest report is Oslo, Fornebu Airport, 13.4 nm (24.7 km) WSW. Retrieved 2021/01/27 01:20 UTC (38 minutes ago):

ENFB 270120Z AUTO 15009KT 9999NDV FEW047/// BKN093/// 03/M01 Q1007 W///S4

Closest aviation forecast (TAF) to Kjeller Airport

Closest forecast is Oslo Gardermoen Airport, 13.6 nm (25.2 km) N. Retrieved 2021-01-27 00:57 UTC (1 hour ago):

TAF ENGM 262300Z 2700/2724 36005KT 9999 SCT002 PROB40 2700/2712 0800 FZFG VV002